createdAt,value
2023-05-17T00:04:38.411Z,8.15
2023-05-17T00:09:34.968Z,8.1
2023-05-17T00:14:31.402Z,8.05
2023-05-17T00:20:42.105Z,8
2023-05-17T00:25:38.925Z,8
2023-05-17T00:30:35.149Z,7.95
2023-05-17T00:35:31.643Z,8.05
2023-05-17T00:41:42.620Z,7.95
2023-05-17T00:46:38.879Z,7.95
2023-05-17T00:51:35.616Z,7.84
2023-05-17T00:56:31.913Z,7.95
2023-05-17T01:01:28.419Z,7.95
2023-05-17T01:07:39.215Z,7.89
2023-05-17T01:12:35.877Z,7.79
2023-05-17T01:17:32.372Z,7.84
2023-05-17T01:22:28.728Z,7.84
2023-05-17T01:28:39.421Z,7.84
2023-05-17T01:33:36.111Z,7.79
2023-05-17T01:38:32.527Z,7.79
2023-05-17T01:43:29.034Z,7.79
2023-05-17T01:49:39.700Z,7.79
2023-05-17T01:54:36.527Z,7.84
2023-05-17T01:59:32.763Z,7.79
2023-05-17T02:04:29.256Z,7.74
2023-05-17T02:10:39.991Z,7.74
2023-05-17T02:15:36.429Z,7.79
2023-05-17T02:20:33.052Z,7.79
2023-05-17T02:25:29.777Z,7.79
2023-05-17T02:31:40.185Z,7.79
2023-05-17T02:36:36.853Z,7.74
2023-05-17T02:41:33.313Z,7.69
2023-05-17T02:46:29.755Z,7.69
2023-05-17T02:52:40.384Z,7.64
2023-05-17T02:57:36.949Z,7.59
2023-05-17T03:02:33.697Z,7.64
2023-05-17T03:07:30.011Z,7.59
2023-05-17T03:13:40.684Z,7.54
2023-05-17T03:18:37.480Z,7.44
2023-05-17T03:23:33.867Z,7.49
2023-05-17T03:34:40.924Z,7.54
2023-05-17T03:39:37.476Z,7.54
2023-05-17T03:44:34.144Z,7.54
2023-05-17T03:49:30.515Z,7.54
2023-05-17T03:55:41.186Z,7.59
2023-05-17T04:00:37.721Z,7.54
2023-05-17T04:05:34.339Z,7.54
2023-05-17T04:10:30.875Z,7.49
2023-05-17T04:16:41.421Z,7.49
2023-05-17T04:21:38.037Z,7.59
2023-05-17T04:26:34.591Z,7.79
2023-05-17T04:31:31.042Z,7.89
2023-05-17T04:37:41.718Z,7.89
2023-05-17T04:42:38.264Z,8.05
2023-05-17T04:47:35.005Z,8
2023-05-17T04:52:31.280Z,8.05
2023-05-17T04:58:41.997Z,8.1
2023-05-17T05:03:38.674Z,8.15
2023-05-17T05:08:35.159Z,8.26
2023-05-17T05:13:31.574Z,8.31
2023-05-17T05:19:42.260Z,8.37
2023-05-17T05:24:38.858Z,8.48
2023-05-17T05:29:35.282Z,8.59
2023-05-17T05:34:31.885Z,8.75
2023-05-17T05:40:42.627Z,8.7
2023-05-17T05:45:39.065Z,8.7
2023-05-17T05:50:35.634Z,8.64
2023-05-17T05:55:32.097Z,8.59
2023-05-17T06:00:28.863Z,8.53
2023-05-17T06:06:39.686Z,8.59
2023-05-17T06:11:35.923Z,8.59
2023-05-17T06:16:32.548Z,8.53
2023-05-17T06:21:28.935Z,8.75
2023-05-17T06:27:39.669Z,8.87
2023-05-17T06:32:36.323Z,9.04
2023-05-17T06:37:32.676Z,9.1
2023-05-17T06:42:29.221Z,9.1
2023-05-17T06:48:40.012Z,8.87
2023-05-17T06:53:36.688Z,9.15
2023-05-17T06:58:33.007Z,9.57
2023-05-17T07:03:29.510Z,9.76
2023-05-17T07:09:40.134Z,9.82
2023-05-17T07:14:36.670Z,9.69
2023-05-17T07:19:33.294Z,9.94
2023-05-17T07:24:29.746Z,10.59
2023-05-17T07:30:40.391Z,10.79
2023-05-17T07:35:36.951Z,11.13
2023-05-17T07:40:33.534Z,10.59
2023-05-17T07:45:30.258Z,10.65
2023-05-17T07:51:40.641Z,10.79
2023-05-17T07:56:37.292Z,11.55
2023-05-17T08:01:33.698Z,11.11
2023-05-17T08:06:30.335Z,11.29
2023-05-17T08:12:40.892Z,10.91
2023-05-17T08:17:37.593Z,10.81
2023-05-17T08:22:33.993Z,10.77
2023-05-17T08:27:30.496Z,9.11
2023-05-17T08:33:41.317Z,8.89
2023-05-17T08:38:37.744Z,7.85
2023-05-17T08:43:34.260Z,7.05
2023-05-17T08:48:30.804Z,7.04
2023-05-17T08:54:41.440Z,7.17
2023-05-17T09:04:35.040Z,7.09
2023-05-17T09:09:30.961Z,6.41
2023-05-17T09:15:41.773Z,6.78
2023-05-17T09:20:38.320Z,6.3
2023-05-17T09:25:34.748Z,6.33
2023-05-17T09:30:31.602Z,6.75
2023-05-17T09:36:42.001Z,6.63
2023-05-17T09:41:38.536Z,6.59
2023-05-17T09:46:35.110Z,6.64
2023-05-17T09:51:39.735Z,6.27
2023-05-17T09:56:36.380Z,6.6
2023-05-17T10:01:32.865Z,6.54
2023-05-17T10:12:40.035Z,6.58
2023-05-17T10:17:36.570Z,6.94
2023-05-17T10:22:33.072Z,6.5
2023-05-17T10:27:29.630Z,6.53
2023-05-17T10:32:26.235Z,6.41
2023-05-17T10:33:40.292Z,6.48
2023-05-17T10:38:42.538Z,6.23
2023-05-17T10:43:33.470Z,6.27
2023-05-17T10:48:29.943Z,6.3
2023-05-17T10:54:40.560Z,6.44
2023-05-17T10:59:37.168Z,6.35
2023-05-17T11:04:33.613Z,6.71
2023-05-17T11:09:30.427Z,6.48
2023-05-17T11:15:40.769Z,6.07
2023-05-17T11:20:37.895Z,6.21
2023-05-17T11:25:33.903Z,6.1
2023-05-17T11:30:30.671Z,6.39
2023-05-17T11:36:41.044Z,6.64
2023-05-17T11:41:37.630Z,6.26
2023-05-17T11:46:34.150Z,6.83
2023-05-17T11:51:30.643Z,6.14
2023-05-17T11:57:41.294Z,6.29
2023-05-17T12:02:37.872Z,6.35
2023-05-17T12:07:34.438Z,6.51
2023-05-17T12:12:31.153Z,6.78
2023-05-17T12:18:41.658Z,6.19
2023-05-17T12:23:38.264Z,6.34
2023-05-17T12:28:34.620Z,6.69
2023-05-17T12:33:31.212Z,6.45
2023-05-17T12:39:41.861Z,6.54
2023-05-17T12:44:38.372Z,7.43
2023-05-17T12:49:34.878Z,6.86
2023-05-17T12:54:31.408Z,6.95
2023-05-17T13:00:42.141Z,6.76
2023-05-17T13:05:38.680Z,6.46
2023-05-17T13:10:35.155Z,7.32
2023-05-17T13:15:31.655Z,6.73
2023-05-17T13:21:42.350Z,6.95
2023-05-17T13:26:38.918Z,7.04
2023-05-17T13:31:35.430Z,6.41
2023-05-17T13:36:32.051Z,6.72
2023-05-17T13:41:28.610Z,6.38
2023-05-17T13:47:39.153Z,6.83
2023-05-17T13:52:35.691Z,6.9
2023-05-17T13:57:32.276Z,6.52
2023-05-17T14:03:42.918Z,7.05
2023-05-17T14:08:39.380Z,6.66
2023-05-17T14:13:35.954Z,6.82
2023-05-17T14:18:32.616Z,7.05
2023-05-17T14:23:29.054Z,6.84
2023-05-17T14:29:39.919Z,6.97
2023-05-17T14:34:36.318Z,7.39
2023-05-17T14:39:32.861Z,7.16
2023-05-17T14:50:39.962Z,6.63
2023-05-17T14:55:36.551Z,6.97
2023-05-17T15:00:33.021Z,6.68
2023-05-17T15:05:29.887Z,6.73
2023-05-17T15:11:40.166Z,7.47
2023-05-17T15:16:36.764Z,7.61
2023-05-17T15:21:33.368Z,6.96
2023-05-17T15:26:29.831Z,6.8
2023-05-17T15:32:40.517Z,7.04
2023-05-17T15:37:37.028Z,7.14
2023-05-17T15:42:33.560Z,7.42
2023-05-17T15:47:42.395Z,6.38
2023-05-17T15:53:40.706Z,6.72
2023-05-17T15:58:37.353Z,6.81
2023-05-17T16:03:33.990Z,6.67
2023-05-17T16:14:41.022Z,6.49
2023-05-17T16:19:37.721Z,6.5
2023-05-17T16:24:34.139Z,7.18
2023-05-17T16:29:30.587Z,7.35
2023-05-17T16:35:41.214Z,6.92
2023-05-17T16:40:37.819Z,7.29
2023-05-17T16:45:34.344Z,6.34
2023-05-17T16:50:31.146Z,6.11
2023-05-17T16:56:41.538Z,6.2
2023-05-17T17:01:38.265Z,6.83
2023-05-17T17:06:34.616Z,6.83
2023-05-17T17:11:31.139Z,6.29
2023-05-17T17:12:45.285Z,6.51
2023-05-17T17:17:41.860Z,6.47
2023-05-17T17:22:38.356Z,6.2
2023-05-17T17:27:34.997Z,6.19
2023-05-17T17:32:31.472Z,5.86
2023-05-17T17:38:42.096Z,5.89
2023-05-17T17:43:38.616Z,5.84
2023-05-17T17:48:35.376Z,5.57
2023-05-17T17:53:31.657Z,5.68
2023-05-17T17:59:42.281Z,5.68
2023-05-17T18:04:38.840Z,5.81
2023-05-17T18:09:35.367Z,6.07
2023-05-17T18:14:31.883Z,6.02
2023-05-17T18:19:28.530Z,6.15
2023-05-17T18:25:39.273Z,5.97
2023-05-17T18:30:35.770Z,5.8
2023-05-17T18:35:32.211Z,5.83
2023-05-17T18:40:28.967Z,5.8
2023-05-17T18:46:39.434Z,5.79
2023-05-17T18:51:35.999Z,5.84
2023-05-17T18:56:32.484Z,5.86
2023-05-17T19:01:29.092Z,6.01
2023-05-17T19:07:39.675Z,6.11
2023-05-17T19:12:36.773Z,6.19
2023-05-17T19:17:32.851Z,5.98
2023-05-17T19:22:29.344Z,6.32
2023-05-17T19:28:39.945Z,6.38
2023-05-17T19:33:36.557Z,6.56
2023-05-17T19:38:33.015Z,7.05
2023-05-17T19:43:29.536Z,6.9
2023-05-17T19:49:40.222Z,6.98
2023-05-17T19:54:37.149Z,7.11
2023-05-17T19:59:33.288Z,7.29
2023-05-17T20:04:29.813Z,7.18
2023-05-17T20:10:40.491Z,7.1
2023-05-17T20:15:37.080Z,7.02
2023-05-17T20:20:33.604Z,7.01
2023-05-17T20:25:30.100Z,7.16
2023-05-17T20:31:40.733Z,7.22
2023-05-17T20:36:37.335Z,7.36
2023-05-17T20:41:33.869Z,7.38
2023-05-17T20:52:40.941Z,7.48
2023-05-17T20:57:37.614Z,7.45
2023-05-17T21:02:34.210Z,7.36
2023-05-17T21:07:30.555Z,7.46
2023-05-17T21:13:41.239Z,7.36
2023-05-17T21:18:37.913Z,7.38
2023-05-17T21:23:34.334Z,7.45
2023-05-17T21:28:30.857Z,7.51
2023-05-17T21:34:41.518Z,7.62
2023-05-17T21:39:38.121Z,7.76
2023-05-17T21:44:34.680Z,7.73
2023-05-17T21:49:31.126Z,7.6
2023-05-17T21:56:00.646Z,7.63
2023-05-17T22:00:38.330Z,7.7
2023-05-17T22:05:34.891Z,7.79
2023-05-17T22:10:31.771Z,7.76
2023-05-17T22:16:42.148Z,7.8
2023-05-17T22:21:38.660Z,7.8
2023-05-17T22:26:35.119Z,7.77
2023-05-17T22:31:31.692Z,7.64
2023-05-17T22:36:28.203Z,7.62
2023-05-17T22:42:38.924Z,7.72
2023-05-17T22:47:35.504Z,7.69
2023-05-17T22:52:31.947Z,7.86
2023-05-17T22:58:42.582Z,7.91
2023-05-17T23:03:39.153Z,7.94
2023-05-17T23:08:35.725Z,8.04
2023-05-17T23:13:32.197Z,8.15
2023-05-17T23:18:28.731Z,8.1
2023-05-17T23:24:39.371Z,8.05
2023-05-17T23:29:35.959Z,7.95
2023-05-17T23:34:32.502Z,7.95
2023-05-17T23:39:28.977Z,7.84
2023-05-17T23:45:39.672Z,7.84
2023-05-17T23:50:36.227Z,7.84
2023-05-17T23:55:32.729Z,7.79
